Time;durP1;ratioP1;P1;durP2;ratioP2;P2;SDS_P1;SDS_P2;PMS_P1;PMS_P2;Temp;Humidity;BMP_temperature;BMP_pressure;BME280_temperature;BME280_humidity;BME280_pressure;Samples;Min_cycle;Max_cycle;Signal;HPM_P1;HPM_P2
2023/04/23 00:00:35;;;;;;;11.80;7.30;;;;;;;10.68;55.11;94930.25;5044467;28;20479;-77
2023/04/23 00:03:09;;;;;;;11.00;6.38;;;;;;;10.66;55.35;94924.41;5044862;28;20025;-79
2023/04/23 00:05:35;;;;;;;10.00;6.60;;;;;;;10.62;55.69;94926.50;5046101;28;20025;-77
2023/04/23 00:08:01;;;;;;;9.07;6.40;;;;;;;10.58;55.49;94925.81;5044242;28;20033;-78
2023/04/23 00:10:27;;;;;;;8.75;6.18;;;;;;;10.54;55.45;94923.16;5045775;28;20059;-78
2023/04/23 00:12:53;;;;;;;8.82;5.90;;;;;;;10.50;55.57;94933.50;5043686;28;20033;-78
2023/04/23 00:15:20;;;;;;;7.93;6.55;;;;;;;10.46;55.41;94923.81;5046167;28;20021;-78
2023/04/23 00:17:46;;;;;;;8.00;6.05;;;;;;;10.47;55.38;94936.34;5045549;28;20021;-77
2023/04/23 00:20:12;;;;;;;10.25;6.45;;;;;;;10.39;55.46;94927.53;5049466;28;20032;-78
2023/04/23 00:22:38;;;;;;;8.82;5.75;;;;;;;10.36;55.38;94929.16;5043973;28;20025;-77
2023/04/23 00:25:03;;;;;;;9.80;6.18;;;;;;;10.33;56.03;94930.06;5044379;28;20411;-76
2023/04/23 00:27:29;;;;;;;9.85;6.88;;;;;;;10.31;55.90;94934.44;5044192;28;20499;-79
2023/04/23 00:29:54;;;;;;;11.38;7.40;;;;;;;10.28;56.21;94933.34;5044153;28;20017;-78
2023/04/23 00:32:21;;;;;;;13.93;7.30;;;;;;;10.25;56.13;94919.69;5046012;28;20074;-78
2023/04/23 00:34:48;;;;;;;9.20;6.88;;;;;;;10.22;56.05;94917.78;5055018;28;20076;-77
2023/04/23 00:37:15;;;;;;;11.77;7.57;;;;;;;10.20;56.26;94922.94;5044679;28;20027;-78
2023/04/23 00:39:41;;;;;;;13.13;8.73;;;;;;;10.17;56.37;94919.09;5045304;28;20029;-77
2023/04/23 00:42:11;;;;;;;13.27;8.80;;;;;;;10.16;56.11;94916.78;5045406;28;20135;-78
2023/04/23 00:44:37;;;;;;;13.43;9.30;;;;;;;10.10;56.28;94925.56;5043819;28;20029;-78
2023/04/23 00:47:04;;;;;;;14.07;9.32;;;;;;;10.04;56.70;94927.28;5043452;28;20028;-78
2023/04/23 00:49:30;;;;;;;13.25;8.60;;;;;;;10.03;56.60;94933.19;5043514;28;20136;-78
2023/04/23 00:51:55;;;;;;;14.35;8.65;;;;;;;10.00;56.50;94934.84;5026661;28;20029;-78
2023/04/23 00:54:21;;;;;;;12.23;8.75;;;;;;;9.97;56.73;94934.94;5045356;28;20031;-77
2023/04/23 00:56:47;;;;;;;11.80;8.68;;;;;;;9.95;56.96;94926.38;5044787;28;20021;-78
2023/04/23 00:59:13;;;;;;;17.38;9.02;;;;;;;9.91;57.00;94931.94;5043479;28;20044;-77
2023/04/23 01:01:39;;;;;;;14.10;8.43;;;;;;;9.92;56.77;94932.72;5043509;28;20029;-78
2023/04/23 01:04:05;;;;;;;10.88;7.97;;;;;;;9.89;56.89;94933.59;5043346;28;20056;-77
2023/04/23 01:06:31;;;;;;;12.60;7.57;;;;;;;9.85;56.95;94920.72;5043465;28;20082;-77
2023/04/23 01:08:56;;;;;;;9.13;7.38;;;;;;;9.83;56.95;94934.09;5043133;28;20415;-77
2023/04/23 01:11:22;;;;;;;10.20;7.38;;;;;;;9.80;56.99;94931.44;5043690;28;20424;-77
2023/04/23 01:13:47;;;;;;;11.25;7.47;;;;;;;9.75;57.08;94941.00;5047945;28;20044;-77
2023/04/23 01:16:12;;;;;;;11.70;6.95;;;;;;;9.77;57.15;94933.09;5026764;28;20229;-77
2023/04/23 01:18:39;;;;;;;11.98;7.38;;;;;;;9.72;57.05;94927.34;5044381;28;20021;-77
2023/04/23 01:21:06;;;;;;;13.43;7.05;;;;;;;9.70;57.16;94927.78;5044758;28;20436;-77
2023/04/23 01:23:31;;;;;;;9.48;6.55;;;;;;;9.66;57.16;94931.81;5043144;28;20025;-77
2023/04/23 01:25:57;;;;;;;11.18;7.45;;;;;;;9.66;56.78;94937.31;5043374;28;20663;-77
2023/04/23 01:28:23;;;;;;;9.23;6.85;;;;;;;9.62;56.86;94931.91;5043119;28;20025;-77
2023/04/23 01:30:49;;;;;;;10.18;6.90;;;;;;;9.57;56.65;94935.94;5042939;28;20082;-77
2023/04/23 01:33:15;;;;;;;9.00;6.50;;;;;;;9.53;56.69;94927.03;5043080;28;20547;-79
2023/04/23 01:35:41;;;;;;;7.85;6.10;;;;;;;9.49;56.48;94929.09;5043014;28;20106;-79
2023/04/23 01:38:09;;;;;;;9.93;5.95;;;;;;;9.47;56.71;94933.47;5049370;28;20094;-78
2023/04/23 01:40:34;;;;;;;9.45;5.47;;;;;;;9.46;56.95;94935.44;5046998;28;20028;-77
2023/04/23 01:43:00;;;;;;;8.57;5.82;;;;;;;9.42;56.65;94931.25;5044857;28;20094;-77
2023/04/23 01:45:25;;;;;;;7.95;5.95;;;;;;;9.38;56.60;94936.03;5042902;28;20399;-77
2023/04/23 01:47:51;;;;;;;8.52;6.28;;;;;;;9.36;56.97;94932.97;5043137;28;20029;-77
2023/04/23 01:50:17;;;;;;;6.78;5.57;;;;;;;9.36;57.08;94932.97;5042658;28;20031;-77
2023/04/23 01:52:44;;;;;;;8.30;6.07;;;;;;;9.33;57.13;94942.81;5042595;28;20032;-78
2023/04/23 01:55:10;;;;;;;8.57;5.70;;;;;;;9.34;57.14;94943.56;5044596;28;20524;-78
2023/04/23 01:57:35;;;;;;;6.72;5.50;;;;;;;9.29;57.28;94940.16;5042831;28;20025;-77
2023/04/23 02:00:07;;;;;;;8.00;5.80;;;;;;;9.28;57.17;94935.84;5047121;28;20136;-77
2023/04/23 02:02:33;;;;;;;9.10;5.90;;;;;;;9.22;57.14;94939.53;5048369;28;20102;-77
2023/04/23 02:05:03;;;;;;;8.07;5.40;;;;;;;9.20;56.96;94937.22;5048490;28;20032;-76
2023/04/23 02:07:32;;;;;;;11.38;6.00;;;;;;;9.21;57.09;94938.00;5050330;28;20155;-78
2023/04/23 02:09:57;;;;;;;8.05;5.80;;;;;;;9.22;57.25;94939.53;5047808;28;20069;-77
2023/04/23 02:12:24;;;;;;;10.23;5.75;;;;;;;9.19;57.08;94945.91;5048011;28;20123;-78
2023/04/23 02:14:49;;;;;;;8.85;5.70;;;;;;;9.17;57.38;94943.56;5046532;28;20047;-77
2023/04/23 02:17:15;;;;;;;8.00;5.93;;;;;;;9.16;57.26;94939.28;5048274;28;20040;-78
2023/04/23 02:19:40;;;;;;;8.88;5.55;;;;;;;9.14;57.48;94938.19;5047970;28;20466;-78
2023/04/23 02:22:06;;;;;;;8.90;6.43;;;;;;;9.13;57.44;94942.88;5048152;28;20024;-78
2023/04/23 02:24:32;;;;;;;10.98;7.05;;;;;;;9.13;57.38;94945.63;5046201;28;20052;-77
2023/04/23 02:26:58;;;;;;;12.65;7.50;;;;;;;9.12;57.62;94946.84;5029788;28;20039;-78
2023/04/23 02:29:23;;;;;;;14.55;7.63;;;;;;;9.12;57.40;94948.78;5029626;28;20029;-77
2023/04/23 02:31:49;;;;;;;11.20;6.97;;;;;;;9.07;57.72;94943.84;5046991;28;20127;-78
2023/04/23 02:34:14;;;;;;;13.93;7.07;;;;;;;9.07;57.34;94946.56;5047836;28;20025;-78
2023/04/23 02:36:39;;;;;;;12.80;6.20;;;;;;;9.04;57.62;94945.44;5046010;28;20021;-78
2023/04/23 02:39:05;;;;;;;12.38;7.03;;;;;;;8.99;57.68;94951.44;5047769;28;20442;-78
2023/04/23 02:41:30;;;;;;;12.63;7.22;;;;;;;8.97;57.76;94942.88;5047613;28;20090;-78
2023/04/23 02:43:56;;;;;;;11.45;6.68;;;;;;;8.97;57.93;94945.59;5055037;28;20032;-78
2023/04/23 02:46:21;;;;;;;8.85;6.30;;;;;;;8.92;57.81;94940.63;5046545;28;20017;-77
2023/04/23 02:48:47;;;;;;;10.77;7.05;;;;;;;8.86;57.84;94936.84;5045910;28;20823;-77
2023/04/23 02:51:13;;;;;;;9.52;6.65;;;;;;;8.87;57.87;94950.13;5045891;28;20025;-78
2023/04/23 02:53:38;;;;;;;11.65;7.22;;;;;;;8.87;57.63;94949.34;5045420;28;20149;-78
2023/04/23 02:56:04;;;;;;;10.00;6.25;;;;;;;8.85;57.82;94952.53;5047661;28;20032;-78
2023/04/23 02:58:29;;;;;;;8.95;6.22;;;;;;;8.79;57.34;94951.47;5046693;28;20068;-78
2023/04/23 03:00:55;;;;;;;10.82;6.35;;;;;;;8.74;56.82;94950.00;5051983;28;20021;-78
2023/04/23 03:03:21;;;;;;;8.10;6.50;;;;;;;8.71;56.76;94948.09;5047399;28;20078;-77
2023/04/23 03:05:46;;;;;;;10.05;6.15;;;;;;;8.69;56.70;94955.22;5045730;28;20527;-77
2023/04/23 03:08:12;;;;;;;9.40;6.40;;;;;;;8.65;57.34;94952.53;5047104;28;20027;-78
2023/04/23 03:10:37;;;;;;;9.48;6.28;;;;;;;8.61;57.55;94948.34;5044940;28;20051;-77
2023/04/23 03:13:03;;;;;;;10.60;6.40;;;;;;;8.62;57.44;94953.41;5045799;28;20496;-77
2023/04/23 03:15:29;;;;;;;11.20;6.32;;;;;;;8.58;57.27;94955.44;5046319;28;20024;-78
2023/04/23 03:17:54;;;;;;;9.20;5.88;;;;;;;8.51;57.14;94945.41;5045875;28;20131;-78
2023/04/23 03:20:20;;;;;;;9.07;6.40;;;;;;;8.49;57.12;94958.00;5045475;28;20028;-78
2023/04/23 03:22:45;;;;;;;11.20;6.18;;;;;;;8.50;57.32;94962.28;5045129;28;20087;-77
2023/04/23 03:25:11;;;;;;;9.60;6.63;;;;;;;8.47;57.39;94954.88;5045304;28;20029;-78
2023/04/23 03:27:41;;;;;;;8.10;6.80;;;;;;;8.45;57.54;94957.28;5046544;28;20500;-78
2023/04/23 03:30:08;;;;;;;10.95;6.53;;;;;;;8.46;57.66;94956.84;5047029;28;20025;-78
2023/04/23 03:32:34;;;;;;;10.05;6.50;;;;;;;8.43;57.56;94949.50;5044619;28;20111;-78
2023/04/23 03:35:00;;;;;;;8.48;6.00;;;;;;;8.45;57.63;94960.03;5045430;28;20036;-78
2023/04/23 03:37:26;;;;;;;10.38;6.22;;;;;;;8.44;57.47;94959.25;5046399;28;20053;-78
2023/04/23 03:39:51;;;;;;;9.82;6.30;;;;;;;8.44;57.81;94963.97;5045266;28;20118;-78
2023/04/23 03:42:17;;;;;;;8.02;5.80;;;;;;;8.44;57.64;94966.69;5045047;28;20063;-77
2023/04/23 03:44:42;;;;;;;9.27;6.05;;;;;;;8.44;57.89;94967.47;5046207;28;20048;-77
2023/04/23 03:47:07;;;;;;;11.70;7.22;;;;;;;8.36;57.86;94952.34;5048872;28;20025;-77
2023/04/23 03:49:33;;;;;;;8.43;6.05;;;;;;;8.42;58.02;94967.09;5053966;28;20495;-77
2023/04/23 03:51:58;;;;;;;9.60;6.50;;;;;;;8.42;57.82;94969.06;5046629;28;20395;-77
2023/04/23 03:54:25;;;;;;;10.07;6.32;;;;;;;8.44;57.91;94972.94;5029766;28;20463;-77
2023/04/23 03:56:50;;;;;;;10.73;6.50;;;;;;;8.47;58.01;94974.06;5049494;28;20497;-76
2023/04/23 03:59:16;;;;;;;8.75;5.97;;;;;;;8.50;57.74;94975.97;5046118;28;20041;-76
2023/04/23 04:01:42;;;;;;;8.48;6.60;;;;;;;8.52;57.61;94974.34;5044853;28;20423;-79
2023/04/23 04:04:07;;;;;;;8.43;6.10;;;;;;;8.55;57.80;94985.66;5044785;28;20024;-78
2023/04/23 04:06:33;;;;;;;9.45;6.57;;;;;;;8.57;57.53;94975.81;5044248;28;20119;-78
2023/04/23 04:08:58;;;;;;;10.77;6.93;;;;;;;8.58;57.67;94974.63;5044887;28;20032;-77
2023/04/23 04:11:25;;;;;;;12.90;7.43;;;;;;;8.61;57.63;94976.53;5045692;28;20024;-77
2023/04/23 04:13:50;;;;;;;13.60;7.35;;;;;;;8.63;57.54;94974.13;5044616;28;20024;-77
2023/04/23 04:16:15;;;;;;;12.63;8.10;;;;;;;8.65;57.73;94979.19;5045778;28;20457;-77
2023/04/23 04:18:41;;;;;;;12.13;7.43;;;;;;;8.63;57.87;94974.13;5045629;28;20013;-78
2023/04/23 04:21:06;;;;;;;9.90;7.80;;;;;;;8.64;57.80;94980.38;5043543;28;20029;-77
2023/04/23 04:23:32;;;;;;;11.30;7.35;;;;;;;8.66;58.10;94977.97;5045598;28;20033;-77
2023/04/23 04:25:58;;;;;;;11.27;8.02;;;;;;;8.68;58.01;94987.34;5043759;28;20025;-78
2023/04/23 04:28:24;;;;;;;11.90;7.82;;;;;;;8.71;58.22;94980.22;5044140;28;20031;-78
2023/04/23 04:30:52;;;;;;;13.68;8.25;;;;;;;8.76;58.43;94993.44;5043914;28;20104;-78
2023/04/23 04:33:19;;;;;;;12.27;7.85;;;;;;;8.76;58.28;94993.44;5044949;28;20033;-77
2023/04/23 04:35:45;;;;;;;13.70;8.40;;;;;;;8.80;58.04;94994.13;5044057;28;20075;-78
2023/04/23 04:38:11;;;;;;;12.25;7.95;;;;;;;8.78;58.19;94999.28;5044354;28;20021;-78
2023/04/23 04:40:36;;;;;;;10.30;8.00;;;;;;;8.85;58.33;95003.84;5045701;28;20490;-78
2023/04/23 04:43:04;;;;;;;16.15;8.75;;;;;;;8.86;58.21;95002.63;5043893;28;20675;-78
2023/04/23 04:45:29;;;;;;;13.05;8.50;;;;;;;8.92;58.09;95006.41;5027223;28;20032;-76
2023/04/23 04:47:55;;;;;;;11.70;9.02;;;;;;;8.96;58.46;95005.16;5043978;28;20025;-79
2023/04/23 04:50:21;;;;;;;14.38;8.45;;;;;;;8.98;58.57;95002.75;5049822;28;20407;-77
2023/04/23 04:52:46;;;;;;;14.95;8.63;;;;;;;9.00;58.68;94999.56;5051584;28;20119;-77
2023/04/23 04:55:11;;;;;;;11.95;8.38;;;;;;;9.05;58.54;95012.78;5045515;28;20087;-77
2023/04/23 04:57:37;;;;;;;14.30;9.77;;;;;;;9.08;58.50;95003.72;5045509;28;20479;-80
2023/04/23 05:00:21;;;;;;;11.98;9.30;;;;;;;9.14;58.37;95014.97;5043174;28;20516;-78
2023/04/23 05:02:48;;;;;;;16.90;10.75;;;;;;;9.17;58.30;95011.34;5043398;28;20051;-79
2023/04/23 05:05:14;;;;;;;12.65;9.43;;;;;;;9.17;58.11;95022.31;5043874;28;20079;-78
2023/04/23 05:07:39;;;;;;;20.55;10.73;;;;;;;9.20;58.10;95019.53;5044421;28;20469;-78
2023/04/23 05:10:05;;;;;;;16.95;10.10;;;;;;;9.20;58.07;95016.00;5043603;28;20029;-78
2023/04/23 05:12:31;;;;;;;17.83;11.40;;;;;;;9.28;57.82;95023.63;5045280;28;20087;-79
2023/04/23 05:14:56;;;;;;;14.32;9.43;;;;;;;9.35;57.72;95013.69;5043590;28;20116;-78
2023/04/23 05:17:22;;;;;;;13.95;9.60;;;;;;;9.35;57.46;95019.19;5045099;28;20028;-78
2023/04/23 05:19:47;;;;;;;18.25;10.32;;;;;;;9.43;57.41;95028.81;5043692;28;20086;-78
2023/04/23 05:22:13;;;;;;;14.02;9.18;;;;;;;9.44;57.41;95019.38;5026643;28;20029;-74
2023/04/23 05:24:39;;;;;;;12.20;8.50;;;;;;;9.53;57.38;95023.09;5044298;28;20016;-74
2023/04/23 05:27:05;;;;;;;14.25;9.10;;;;;;;9.58;57.08;95019.06;5043048;28;20032;-76
2023/04/23 05:29:30;;;;;;;14.63;9.65;;;;;;;9.61;57.03;95023.69;5026272;28;20021;-77
2023/04/23 05:31:55;;;;;;;12.55;8.18;;;;;;;9.64;57.26;95019.31;5044583;28;20549;-77
2023/04/23 05:34:21;;;;;;;13.90;8.02;;;;;;;9.68;57.18;95026.25;5042447;28;20021;-77
2023/04/23 05:36:46;;;;;;;13.82;8.07;;;;;;;9.73;57.21;95019.47;5044428;28;20028;-76
2023/04/23 05:39:11;;;;;;;9.85;8.20;;;;;;;9.83;57.23;95029.44;5044223;28;20116;-75
2023/04/23 05:41:37;;;;;;;10.60;6.85;;;;;;;9.84;56.71;95029.00;5043103;28;20033;-77
2023/04/23 05:44:02;;;;;;;9.43;7.07;;;;;;;9.85;56.88;95022.31;5050097;28;20050;-88
2023/04/23 05:46:28;;;;;;;12.52;7.38;;;;;;;9.87;57.28;95030.13;5037951;28;20112;-84
2023/04/23 05:48:53;;;;;;;9.50;7.72;;;;;;;9.97;56.88;95034.56;5036705;28;20056;-84
2023/04/23 05:51:19;;;;;;;12.63;7.65;;;;;;;9.98;56.90;95035.34;5039034;28;20047;-81
2023/04/23 05:53:44;;;;;;;11.43;6.90;;;;;;;10.06;56.81;95033.97;5026213;28;20412;-81
2023/04/23 05:56:10;;;;;;;8.05;6.72;;;;;;;10.14;56.79;95038.06;5027132;28;20037;-82
2023/04/23 05:58:37;;;;;;;10.38;7.30;;;;;;;10.17;56.60;95033.69;5042878;28;20034;-82
2023/04/23 06:01:03;;;;;;;8.27;6.97;;;;;;;10.02;57.35;95036.03;5033834;28;20025;-82
2023/04/23 06:03:28;;;;;;;9.02;6.30;;;;;;;10.11;56.58;95033.44;5042033;28;20021;-83
2023/04/23 06:05:54;;;;;;;12.10;7.38;;;;;;;10.17;56.93;95039.19;5044203;28;20046;-81
2023/04/23 06:08:19;;;;;;;12.00;6.68;;;;;;;10.24;56.72;95036.28;5044200;28;20079;-83
2023/04/23 06:10:45;;;;;;;12.00;7.85;;;;;;;10.27;56.99;95029.94;5044667;28;20032;-82
2023/04/23 06:13:11;;;;;;;8.07;6.70;;;;;;;10.33;56.77;95028.97;5043894;28;20039;-83
2023/04/23 06:15:36;;;;;;;12.18;7.57;;;;;;;10.49;56.40;95027.38;5026503;28;20021;-83
2023/04/23 06:18:01;;;;;;;10.65;7.40;;;;;;;10.60;55.96;95027.84;5042770;28;20025;-83
2023/04/23 06:20:27;;;;;;;10.00;6.60;;;;;;;10.62;55.80;95020.72;5042979;28;20488;-82
2023/04/23 06:22:52;;;;;;;12.27;7.45;;;;;;;10.73;55.61;95030.66;5044278;28;20029;-83
2023/04/23 06:25:17;;;;;;;15.70;8.23;;;;;;;10.74;55.96;95029.47;5043868;28;20079;-83
2023/04/23 06:27:43;;;;;;;11.63;7.55;;;;;;;10.85;55.78;95035.44;5042893;28;20013;-82
2023/04/23 06:30:09;;;;;;;8.52;7.40;;;;;;;10.92;55.79;95028.94;5043526;28;20037;-82
2023/04/23 06:32:34;;;;;;;11.10;7.13;;;;;;;10.86;55.84;95026.75;5044307;28;20024;-82
2023/04/23 06:34:59;;;;;;;8.18;6.90;;;;;;;10.94;56.11;95032.03;5044107;28;20017;-82
2023/04/23 06:37:26;;;;;;;8.55;7.25;;;;;;;11.01;56.18;95029.88;5049486;28;20055;-83
2023/04/23 06:39:52;;;;;;;9.23;7.38;;;;;;;11.14;55.92;95027.91;5048364;28;20060;-82
2023/04/23 06:42:17;;;;;;;17.23;8.82;;;;;;;11.35;55.15;95031.97;5042523;28;20109;-82
2023/04/23 06:44:43;;;;;;;14.07;8.52;;;;;;;11.41;54.78;95030.25;5046024;28;20402;-82
2023/04/23 06:47:08;;;;;;;10.40;8.45;;;;;;;11.46;54.96;95022.63;5047353;28;20056;-82
2023/04/23 06:49:34;;;;;;;11.82;8.60;;;;;;;11.35;55.32;95020.97;5048394;28;20021;-82
2023/04/23 06:51:59;;;;;;;9.75;7.93;;;;;;;11.40;55.35;95025.91;5047227;28;20040;-83
2023/04/23 06:54:25;;;;;;;13.55;8.48;;;;;;;11.45;55.07;95013.59;5046177;28;20036;-81
2023/04/23 06:56:51;;;;;;;9.85;7.25;;;;;;;11.68;54.35;95018.00;5045899;28;20078;-82
2023/04/23 06:59:16;;;;;;;12.70;8.88;;;;;;;11.85;54.13;95019.44;5045788;28;20125;-83
2023/04/23 07:01:42;;;;;;;9.73;7.68;;;;;;;12.00;54.00;95018.97;5050921;28;20053;-82
2023/04/23 07:04:07;;;;;;;9.20;8.07;;;;;;;11.96;54.33;95021.84;5057686;28;20043;-81
2023/04/23 07:06:33;;;;;;;9.25;7.53;;;;;;;12.12;54.28;95015.44;5047144;28;20082;-82
2023/04/23 07:08:59;;;;;;;10.57;7.78;;;;;;;12.33;53.96;95027.69;5045586;28;20029;-81
2023/04/23 07:11:25;;;;;;;9.38;7.13;;;;;;;12.35;53.87;95017.78;5045923;28;20131;-85
2023/04/23 07:13:50;;;;;;;12.05;7.00;;;;;;;12.42;53.72;95025.81;5046682;28;20036;-85
2023/04/23 07:16:15;;;;;;;9.77;7.65;;;;;;;12.52;53.28;95021.16;5048823;28;20025;-75
2023/04/23 07:18:41;;;;;;;8.45;7.10;;;;;;;12.75;52.87;95020.69;5062315;28;20308;-89
2023/04/23 07:21:06;;;;;;;8.23;7.15;;;;;;;12.89;52.87;95015.88;5070793;28;20032;-86
2023/04/23 07:23:32;;;;;;;8.43;7.32;;;;;;;13.06;52.43;95019.97;5050634;28;20027;-88
2023/04/23 07:25:57;;;;;;;8.77;7.43;;;;;;;13.21;51.90;95007.22;5050106;28;20448;-89
2023/04/23 07:28:23;;;;;;;10.25;6.93;;;;;;;13.24;52.07;95011.81;5049503;28;20036;-88
2023/04/23 07:30:49;;;;;;;13.27;8.13;;;;;;;13.31;52.15;95005.28;5048859;28;20041;-79
2023/04/23 07:33:14;;;;;;;10.13;7.10;;;;;;;13.44;51.57;95008.72;5052432;28;20052;-77
2023/04/23 07:35:39;;;;;;;9.75;6.45;;;;;;;13.52;51.70;95009.19;5045322;28;20033;-77
2023/04/23 07:38:05;;;;;;;8.27;7.35;;;;;;;13.64;51.02;95010.31;5046549;28;20025;-76
2023/04/23 07:40:31;;;;;;;10.60;6.82;;;;;;;13.85;50.78;95008.69;5028444;28;20762;-78
2023/04/23 07:42:58;;;;;;;8.80;7.10;;;;;;;13.93;50.88;95013.47;5028207;28;20029;-76
2023/04/23 07:45:23;;;;;;;10.40;7.60;;;;;;;14.07;50.44;95010.13;5028570;28;20057;-78
2023/04/23 07:47:49;;;;;;;8.93;7.00;;;;;;;14.26;49.94;95019.22;5044716;28;20033;-77
2023/04/23 07:50:14;;;;;;;8.05;6.88;;;;;;;14.27;50.03;95011.69;5044916;28;20031;-77
2023/04/23 07:52:40;;;;;;;8.73;6.22;;;;;;;14.41;49.37;95013.09;5044223;28;20458;-77
2023/04/23 07:55:06;;;;;;;11.48;7.13;;;;;;;14.51;49.04;95009.91;5027832;28;20053;-79
2023/04/23 07:57:32;;;;;;;9.63;6.78;;;;;;;14.69;48.53;95014.69;5047618;28;20118;-86
2023/04/23 07:59:57;;;;;;;9.98;6.32;;;;;;;14.90;48.37;95017.72;5028467;28;20080;-77
2023/04/23 08:02:25;;;;;;;7.90;6.30;;;;;;;14.98;48.35;95011.41;5045894;28;20037;-77
2023/04/23 08:04:51;;;;;;;8.90;6.25;;;;;;;15.00;48.31;95016.50;5044963;28;20036;-79
2023/04/23 08:07:17;;;;;;;7.07;6.28;;;;;;;15.08;47.54;95004.66;5052245;28;20033;-82
2023/04/23 08:09:42;;;;;;;8.52;6.63;;;;;;;15.36;46.73;95010.84;5048708;28;20090;-81
2023/04/23 08:12:07;;;;;;;6.55;5.90;;;;;;;15.50;46.61;95000.38;5027853;28;20079;-79
2023/04/23 08:14:33;;;;;;;11.38;6.85;;;;;;;15.72;46.06;95000.16;5027352;28;20021;-78
2023/04/23 08:16:59;;;;;;;7.25;6.13;;;;;;;15.84;45.45;94996.41;5043952;28;20481;-77
2023/04/23 08:19:25;;;;;;;7.47;6.38;;;;;;;16.07;44.94;94998.44;5027304;28;20052;-79
2023/04/23 08:21:53;;;;;;;15.10;12.13;;;;;;;16.38;44.55;94995.28;5043781;28;20086;-79
2023/04/23 08:24:19;;;;;;;8.57;6.63;;;;;;;16.45;44.07;95002.47;5027803;28;20614;-78
2023/04/23 08:26:45;;;;;;;10.20;7.30;;;;;;;16.64;43.85;94990.00;5045965;28;20089;-78
2023/04/23 08:29:11;;;;;;;8.85;6.93;;;;;;;16.71;43.10;94992.44;5044892;28;20044;-77
2023/04/23 08:31:36;;;;;;;8.27;6.47;;;;;;;16.71;42.73;94986.13;5027287;28;20035;-77
2023/04/23 08:34:01;;;;;;;11.88;8.63;;;;;;;16.99;42.22;94986.66;5043802;28;20033;-77
2023/04/23 08:36:28;;;;;;;12.52;10.00;;;;;;;17.27;42.08;94992.69;5045094;28;20474;-78
2023/04/23 08:38:53;;;;;;;8.45;6.68;;;;;;;17.49;41.36;94987.50;5043568;28;20033;-78
2023/04/23 08:41:21;;;;;;;8.23;6.30;;;;;;;17.58;41.01;94989.41;5026929;28;20146;-77
2023/04/23 08:43:53;;;;;;;7.07;5.82;;;;;;;17.68;40.84;94981.72;5042796;28;20032;-78
2023/04/23 08:46:19;;;;;;;7.47;6.00;;;;;;;17.85;41.02;94976.44;5027148;28;20036;-77
2023/04/23 08:48:46;;;;;;;9.90;7.45;;;;;;;18.18;40.79;94981.69;5026567;28;20340;-78
2023/04/23 08:51:17;;;;;;;8.55;6.40;;;;;;;18.34;39.94;94980.38;5026864;28;20435;-78
2023/04/23 08:53:43;;;;;;;9.88;6.78;;;;;;;18.62;39.14;94969.59;5027198;28;20083;-77
2023/04/23 08:56:09;;;;;;;7.47;6.22;;;;;;;18.57;38.13;94971.03;5043111;28;20116;-78
2023/04/23 08:58:35;;;;;;;9.18;6.40;;;;;;;18.78;37.92;94969.03;5042924;28;20128;-77
2023/04/23 09:01:00;;;;;;;7.63;6.03;;;;;;;19.02;37.85;94965.97;5043389;28;20403;-76
2023/04/23 09:03:26;;;;;;;7.13;6.43;;;;;;;19.22;37.18;94973.53;5043458;28;20078;-77
2023/04/23 09:05:52;;;;;;;8.13;6.05;;;;;;;19.53;36.92;94967.97;5042957;28;20371;-78
2023/04/23 09:08:20;;;;;;;7.15;5.35;;;;;;;19.69;36.58;94963.03;5026902;28;20107;-77
2023/04/23 09:10:46;;;;;;;6.80;5.13;;;;;;;19.84;35.57;94972.00;5043103;28;20033;-78
2023/04/23 09:13:12;;;;;;;7.43;5.10;;;;;;;19.85;35.15;94963.16;5043089;28;20029;-76
2023/04/23 09:15:42;;;;;;;6.22;4.90;;;;;;;20.15;34.06;94969.16;5044590;28;20025;-77
2023/04/23 09:18:08;;;;;;;9.80;5.72;;;;;;;20.21;34.17;94955.25;5027176;28;20025;-78
2023/04/23 09:20:33;;;;;;;7.07;5.70;;;;;;;20.47;34.92;94965.53;5047460;28;20025;-77
2023/04/23 09:22:59;;;;;;;7.35;6.10;;;;;;;20.66;34.92;94959.00;5044752;28;20066;-78
2023/04/23 09:25:24;;;;;;;6.45;5.60;;;;;;;20.81;34.84;94964.38;5026530;28;20025;-77
2023/04/23 09:27:51;;;;;;;7.38;5.63;;;;;;;20.85;34.34;94956.53;5025689;28;20078;-78
2023/04/23 09:30:17;;;;;;;5.93;5.32;;;;;;;21.01;33.66;94957.06;5043016;28;20064;-77
2023/04/23 09:32:44;;;;;;;12.38;6.20;;;;;;;21.30;33.55;94958.66;5042480;28;20028;-78
2023/04/23 09:35:16;;;;;;;9.63;5.60;;;;;;;21.51;32.68;94954.38;5042727;28;20025;-78
2023/04/23 09:37:47;;;;;;;14.13;8.05;;;;;;;21.78;32.36;94949.25;5042527;28;20028;-77
2023/04/23 09:40:13;;;;;;;6.93;5.88;;;;;;;22.08;32.00;94943.84;5026141;28;20480;-77
2023/04/23 09:42:39;;;;;;;8.43;6.45;;;;;;;22.29;31.27;94944.34;5026267;28;20372;-77
2023/04/23 09:45:11;;;;;;;8.32;6.13;;;;;;;22.37;31.33;94937.69;5042589;28;20073;-77
2023/04/23 09:47:46;;;;;;;9.80;7.93;;;;;;;22.26;30.65;94932.13;5042423;28;20462;-76
2023/04/23 09:50:12;;;;;;;7.30;5.72;;;;;;;22.72;30.57;94930.66;5042762;28;20025;-77
2023/04/23 09:52:38;;;;;;;7.93;5.05;;;;;;;23.04;29.71;94933.81;5042399;28;20154;-77
2023/04/23 09:55:04;;;;;;;6.63;4.93;;;;;;;23.28;28.89;94927.53;5042329;28;20029;-78
2023/04/23 09:57:37;;;;;;;7.32;5.20;;;;;;;23.57;28.33;94931.66;5025889;28;20106;-76
2023/04/23 10:00:15;;;;;;;6.40;4.90;;;;;;;23.58;28.32;94930.38;5025837;28;20095;-77
2023/04/23 10:02:48;;;;;;;7.05;4.88;;;;;;;23.71;27.83;94924.91;5042762;28;20395;-79
2023/04/23 10:05:18;;;;;;;8.88;5.60;;;;;;;23.42;28.38;94922.84;5042558;28;20115;-76
2023/04/23 10:07:45;;;;;;;6.53;4.78;;;;;;;23.24;28.67;94913.81;5042414;28;20132;-77
2023/04/23 10:10:11;;;;;;;8.23;4.82;;;;;;;22.96;28.83;94897.16;5025272;28;20036;-77
2023/04/23 10:12:37;;;;;;;6.15;4.97;;;;;;;22.73;29.38;94904.16;5042519;28;20056;-77
2023/04/23 10:15:06;;;;;;;7.07;5.07;;;;;;;22.94;29.01;94913.75;5045745;28;20021;-78
2023/04/23 10:17:34;;;;;;;5.80;4.72;;;;;;;23.16;28.33;94906.47;5045452;28;20110;-77
2023/04/23 10:20:00;;;;;;;8.27;5.60;;;;;;;23.25;28.37;94900.53;5045968;28;20078;-78
2023/04/23 10:22:28;;;;;;;5.57;4.80;;;;;;;23.34;27.68;94886.19;5046701;28;20644;-77
2023/04/23 10:24:57;;;;;;;6.07;5.28;;;;;;;23.47;27.97;94885.56;5045882;28;20029;-78
2023/04/23 10:27:25;;;;;;;9.43;5.00;;;;;;;23.57;27.31;94881.91;5047154;28;20044;-78
2023/04/23 10:29:51;;;;;;;7.20;4.45;;;;;;;23.78;28.11;94885.03;5046139;28;20484;-77
2023/04/23 10:32:17;;;;;;;8.52;4.70;;;;;;;24.00;27.06;94884.06;5045692;28;20112;-78
2023/04/23 10:34:43;;;;;;;6.85;5.30;;;;;;;24.34;26.36;94883.66;5046235;28;20021;-76
2023/04/23 10:37:10;;;;;;;8.82;4.93;;;;;;;24.55;25.46;94872.72;5029089;28;20413;-78
2023/04/23 10:39:36;;;;;;;6.97;4.20;;;;;;;24.89;24.58;94870.97;5047427;28;20025;-76
2023/04/23 10:42:03;;;;;;;5.53;4.15;;;;;;;25.14;24.19;94865.25;5029064;28;20021;-76
2023/04/23 10:44:38;;;;;;;7.43;4.50;;;;;;;25.39;24.45;94868.66;5029037;28;20017;-78
2023/04/23 10:47:05;;;;;;;5.28;4.60;;;;;;;25.67;23.43;94863.31;5028954;28;20036;-79
2023/04/23 10:49:32;;;;;;;6.22;5.20;;;;;;;25.78;22.38;94859.56;5045733;28;20041;-77
2023/04/23 10:52:03;;;;;;;6.60;4.32;;;;;;;26.02;22.36;94852.22;5045683;28;20103;-78
2023/04/23 10:54:32;;;;;;;8.07;4.10;;;;;;;26.17;22.56;94850.38;5029025;28;20029;-76
2023/04/23 10:57:03;;;;;;;7.35;4.88;;;;;;;26.36;22.60;94843.88;5045655;28;20025;-78
2023/04/23 10:59:29;;;;;;;7.22;4.72;;;;;;;26.55;22.08;94833.22;5045673;28;20127;-78
2023/04/23 11:02:04;;;;;;;9.85;5.00;;;;;;;26.69;21.44;94829.09;5045251;28;20075;-77
2023/04/23 11:04:30;;;;;;;5.90;4.80;;;;;;;26.93;21.73;94835.72;5028719;28;20594;-78
2023/04/23 11:07:04;;;;;;;5.80;4.18;;;;;;;27.08;20.51;94829.53;5045340;28;20040;-77
2023/04/23 11:09:48;;;;;;;5.68;4.28;;;;;;;27.38;21.05;94826.97;5032690;28;20588;-76
2023/04/23 11:12:23;;;;;;;5.07;4.30;;;;;;;27.67;20.09;94822.13;5045713;28;20028;-76
2023/04/23 11:14:50;;;;;;;9.27;6.03;;;;;;;28.04;19.79;94820.13;5046391;28;20021;-78
2023/04/23 11:17:23;;;;;;;6.05;4.65;;;;;;;28.29;19.43;94812.75;5044781;28;20067;-78
2023/04/23 11:20:12;;;;;;;5.78;4.35;;;;;;;28.44;18.41;94809.22;5045216;28;20091;-78
2023/04/23 11:22:42;;;;;;;5.00;3.88;;;;;;;28.78;17.75;94813.88;5045656;28;20029;-78
2023/04/23 11:25:10;;;;;;;4.53;4.00;;;;;;;29.18;17.12;94813.44;5045246;28;20503;-77
2023/04/23 11:27:39;;;;;;;5.95;4.88;;;;;;;29.77;16.84;94816.88;5028020;28;20033;-78
2023/04/23 11:30:06;;;;;;;5.10;3.58;;;;;;;30.24;15.37;94811.91;5045323;28;20029;-78